createdAt,value
2022-08-14T00:02:24.520Z,54.26
2022-08-14T00:04:54.593Z,54.43
2022-08-14T00:07:21.662Z,54.81
2022-08-14T00:09:55.967Z,54.49
2022-08-14T00:12:48.065Z,54.97
2022-08-14T00:15:43.374Z,54.94
2022-08-14T00:18:14.627Z,54.63
2022-08-14T00:20:57.983Z,54.94
2022-08-14T00:23:26.363Z,54.66
2022-08-14T00:26:06.069Z,54.56
2022-08-14T00:28:36.714Z,54.99
2022-08-14T00:31:05.470Z,55.05
2022-08-14T00:33:51.139Z,54.93
2022-08-14T00:36:39.095Z,55.11
2022-08-14T00:39:13.518Z,55.12
2022-08-14T00:41:42.278Z,54.89
2022-08-14T00:44:09.652Z,54.95
2022-08-14T00:46:37.914Z,55.26
2022-08-14T00:49:06.070Z,54.93
2022-08-14T00:51:38.050Z,55.40
2022-08-14T00:54:16.809Z,55.31
2022-08-14T00:56:50.795Z,55.46
2022-08-14T00:59:25.040Z,55.43
2022-08-14T01:01:53.328Z,55.48
2022-08-14T01:04:37.278Z,55.44
2022-08-14T01:07:09.470Z,55.71
2022-08-14T01:09:36.712Z,55.36
2022-08-14T01:12:05.291Z,55.50
2022-08-14T01:14:32.544Z,55.61
2022-08-14T01:16:59.983Z,55.53
2022-08-14T01:19:46.713Z,55.50
2022-08-14T01:22:18.990Z,55.39
2022-08-14T01:24:46.999Z,55.40
2022-08-14T01:27:22.379Z,55.48
2022-08-14T01:29:59.053Z,55.54
2022-08-14T01:32:30.220Z,55.70
2022-08-14T01:35:18.447Z,55.71
2022-08-14T01:37:56.521Z,55.51
2022-08-14T01:40:36.766Z,55.57
2022-08-14T01:43:15.888Z,55.79
2022-08-14T01:45:49.179Z,55.80
2022-08-14T01:48:25.876Z,55.81
2022-08-14T01:50:54.049Z,55.89
2022-08-14T01:53:22.620Z,55.97
2022-08-14T01:55:51.753Z,56.01
2022-08-14T01:58:28.525Z,55.99
2022-08-14T02:00:58.883Z,55.76
2022-08-14T02:03:35.529Z,56.12
2022-08-14T02:06:33.113Z,55.84
2022-08-14T02:08:55.418Z,56.16
2022-08-14T02:11:26.392Z,56.09
2022-08-14T02:14:07.178Z,56.09
2022-08-14T02:16:40.485Z,55.92
2022-08-14T02:19:15.221Z,56.01
2022-08-14T02:21:48.950Z,56.61
2022-08-14T02:24:39.592Z,56.37
2022-08-14T02:28:22.780Z,56.15
2022-08-14T02:30:00.578Z,56.33
2022-08-14T02:32:36.620Z,56.51
2022-08-14T02:35:16.699Z,56.21
2022-08-14T02:37:49.362Z,56.24
2022-08-14T02:40:20.414Z,56.43
2022-08-14T02:42:55.012Z,56.40
2022-08-14T02:45:38.426Z,56.79
2022-08-14T02:49:01.651Z,56.71
2022-08-14T02:51:00.576Z,56.78
2022-08-14T02:53:29.304Z,56.75
2022-08-14T02:56:03.288Z,56.81
2022-08-14T02:58:42.323Z,56.92
2022-08-14T03:01:09.964Z,56.87
2022-08-14T03:03:38.799Z,56.85
2022-08-14T03:06:07.308Z,57.26
2022-08-14T03:08:38.025Z,56.84
2022-08-14T03:11:09.677Z,56.90
2022-08-14T03:13:37.689Z,57.07
2022-08-14T03:16:20.008Z,57.11
2022-08-14T03:18:48.645Z,57.33
2022-08-14T03:21:20.762Z,57.33
2022-08-14T03:23:50.157Z,57.27
2022-08-14T03:26:29.641Z,57.47
2022-08-14T03:29:01.008Z,57.62
2022-08-14T03:31:29.368Z,57.43
2022-08-14T03:34:00.128Z,57.57
2022-08-14T03:37:51.841Z,57.73
2022-08-14T03:39:22.279Z,57.69
2022-08-14T03:41:54.424Z,57.81
2022-08-14T03:45:26.419Z,57.78
2022-08-14T03:47:11.678Z,57.79
2022-08-14T03:49:42.575Z,57.82
2022-08-14T03:52:37.747Z,58.30
2022-08-14T03:54:57.461Z,57.88
2022-08-14T03:57:24.701Z,57.80
2022-08-14T03:59:51.806Z,58.03
2022-08-14T04:02:32.470Z,57.99
2022-08-14T04:05:12.190Z,58.27
2022-08-14T04:07:49.505Z,58.30
2022-08-14T04:10:31.870Z,58.20
2022-08-14T04:13:04.025Z,58.15
2022-08-14T04:15:55.844Z,58.03
2022-08-14T04:18:22.020Z,58.23
2022-08-14T04:20:54.363Z,58.24
2022-08-14T04:23:23.660Z,58.18
2022-08-14T04:25:56.294Z,58.17
2022-08-14T04:29:07.369Z,58.41
2022-08-14T04:31:11.698Z,58.70
2022-08-14T04:33:42.565Z,58.34
2022-08-14T04:36:15.839Z,58.65
2022-08-14T04:39:03.388Z,58.33
2022-08-14T04:41:53.124Z,58.66
2022-08-14T04:44:26.562Z,58.57
2022-08-14T04:47:22.795Z,58.49
2022-08-14T04:49:57.288Z,58.71
2022-08-14T04:52:25.433Z,58.79
2022-08-14T04:54:54.556Z,58.85
2022-08-14T04:57:22.890Z,58.59
2022-08-14T04:59:52.875Z,58.42
2022-08-14T05:02:25.712Z,58.65
2022-08-14T05:04:57.090Z,58.76
2022-08-14T05:07:46.650Z,58.60
2022-08-14T05:10:16.342Z,58.61
2022-08-14T05:13:13.607Z,58.66
2022-08-14T05:15:39.630Z,58.73
2022-08-14T05:18:17.579Z,58.64
2022-08-14T05:21:57.105Z,59.05
2022-08-14T05:23:52.081Z,59.04
2022-08-14T05:26:21.884Z,59.07
2022-08-14T05:28:49.017Z,58.82
2022-08-14T05:31:20.583Z,59.17
2022-08-14T05:33:56.478Z,59.34
2022-08-14T05:36:25.516Z,59.31
2022-08-14T05:38:54.380Z,59.34
2022-08-14T05:41:22.503Z,59.61
2022-08-14T05:43:50.968Z,59.37
2022-08-14T05:46:23.082Z,59.58
2022-08-14T05:48:57.694Z,59.37
2022-08-14T05:51:25.080Z,59.38
2022-08-14T05:54:01.771Z,59.62
2022-08-14T05:56:39.129Z,59.65
2022-08-14T05:59:07.399Z,59.51
2022-08-14T06:01:37.636Z,59.72
2022-08-14T06:04:05.349Z,59.94
2022-08-14T06:06:38.230Z,59.95
2022-08-14T06:09:05.904Z,61.10
2022-08-14T06:11:37.506Z,60.49
2022-08-14T06:14:06.618Z,60.58
2022-08-14T06:16:48.324Z,60.61
2022-08-14T06:19:18.303Z,60.61
2022-08-14T06:21:45.660Z,60.82
2022-08-14T06:24:18.579Z,60.96
2022-08-14T06:26:54.333Z,61.34
2022-08-14T06:29:24.249Z,61.18
2022-08-14T06:31:54.624Z,61.32
2022-08-14T06:35:02.636Z,61.45
2022-08-14T06:37:17.198Z,61.77
2022-08-14T06:39:44.591Z,61.57
2022-08-14T06:42:22.331Z,61.63
2022-08-14T06:51:19.400Z,61.54
2022-08-14T06:53:47.361Z,61.74
2022-08-14T06:56:14.848Z,61.01
2022-08-14T06:58:41.940Z,61.06
2022-08-14T07:01:28.273Z,61.18
2022-08-14T07:04:22.559Z,61.22
2022-08-14T07:06:58.990Z,61.64
2022-08-14T07:09:28.246Z,61.35
2022-08-14T07:12:54.419Z,61.49
2022-08-14T07:15:05.069Z,61.53
2022-08-14T07:17:36.246Z,61.48
2022-08-14T07:20:05.173Z,61.15
2022-08-14T07:22:56.378Z,61.01
2022-08-14T07:25:21.742Z,60.81
2022-08-14T07:27:53.079Z,60.65
2022-08-14T07:30:33.411Z,60.70
2022-08-14T07:33:03.802Z,60.88
2022-08-14T07:35:43.007Z,60.87
2022-08-14T07:38:20.891Z,60.62
2022-08-14T07:40:52.991Z,60.31
2022-08-14T07:43:21.539Z,60.50
2022-08-14T07:45:50.796Z,60.08
2022-08-14T07:48:25.215Z,60.24
2022-08-14T07:50:56.205Z,59.86
2022-08-14T07:53:30.003Z,60.17
2022-08-14T07:56:21.942Z,59.31
2022-08-14T07:58:51.410Z,59.61
2022-08-14T08:01:19.363Z,59.08
2022-08-14T08:03:54.257Z,59.31
2022-08-14T08:06:27.540Z,59.18
2022-08-14T08:09:36.694Z,58.42
2022-08-14T08:19:12.514Z,58.41
2022-08-14T08:21:48.046Z,58.36
2022-08-14T08:34:18.276Z,57.64
2022-08-14T08:36:46.608Z,57.00
2022-08-14T08:39:15.316Z,57.09
2022-08-14T08:41:49.538Z,57.07
2022-08-14T08:44:31.805Z,56.92
2022-08-14T08:47:05.760Z,56.38
2022-08-14T08:49:59.418Z,55.97
2022-08-14T08:52:31.347Z,56.05
2022-08-14T08:55:00.836Z,55.93
2022-08-14T08:57:33.769Z,55.47
2022-08-14T09:00:38.042Z,55.19
2022-08-14T09:03:44.170Z,55.35
2022-08-14T09:07:00.118Z,55.11
2022-08-14T09:09:03.398Z,55.00
2022-08-14T09:11:31.579Z,54.94
2022-08-14T09:14:02.801Z,54.63
2022-08-14T09:16:47.789Z,54.14
2022-08-14T09:19:21.539Z,55.19
2022-08-14T09:22:01.581Z,54.73
2022-08-14T09:24:51.215Z,54.48
2022-08-14T09:27:39.647Z,54.04
2022-08-14T09:30:39.729Z,53.55
2022-08-14T09:36:43.641Z,53.60
2022-08-14T09:39:23.846Z,52.89
2022-08-14T09:42:33.814Z,52.85
2022-08-14T09:45:18.293Z,52.76
2022-08-14T09:47:56.254Z,52.57
2022-08-14T09:50:36.911Z,52.05
2022-08-14T09:53:11.095Z,51.83
2022-08-14T10:10:41.889Z,49.94
2022-08-14T10:55:50.448Z,45.05
2022-08-14T10:58:51.855Z,45.07
2022-08-14T11:02:11.219Z,44.54
2022-08-14T11:04:47.207Z,46.06
2022-08-14T11:07:19.316Z,45.04
2022-08-14T11:10:00.484Z,45.93
2022-08-14T11:12:56.037Z,45.10
2022-08-14T11:15:27.818Z,46.17
2022-08-14T11:18:01.360Z,46.95
2022-08-14T11:20:32.759Z,46.78
2022-08-14T11:23:02.115Z,47.84
2022-08-14T11:25:36.819Z,48.61
2022-08-14T11:28:11.193Z,49.49
2022-08-14T11:30:49.257Z,49.83
2022-08-14T11:33:24.158Z,49.59
2022-08-14T11:36:02.064Z,49.67
2022-08-14T11:38:37.914Z,50.42
2022-08-14T11:41:07.865Z,50.69
2022-08-14T11:43:58.416Z,50.10
2022-08-14T11:46:37.676Z,50.49
2022-08-14T11:51:58.576Z,51.47
2022-08-14T11:58:55.859Z,52.48
2022-08-14T12:01:28.909Z,53.07
2022-08-14T12:04:07.742Z,53.02
2022-08-14T12:06:45.058Z,52.86
2022-08-14T12:09:32.890Z,51.93
2022-08-14T12:12:03.730Z,51.72
2022-08-14T12:14:35.110Z,51.56
2022-08-14T12:17:13.168Z,51.35
2022-08-14T12:19:51.221Z,51.47
2022-08-14T12:22:45.162Z,50.87
2022-08-14T12:25:14.077Z,51.06
2022-08-14T12:27:53.210Z,50.82
2022-08-14T12:30:39.548Z,51.24
2022-08-14T12:33:27.149Z,51.34
2022-08-14T12:36:00.706Z,51.69
2022-08-14T12:38:33.916Z,52.02
2022-08-14T12:41:08.041Z,52.44
2022-08-14T12:44:02.077Z,52.51
2022-08-14T12:46:31.432Z,51.89
2022-08-14T12:48:59.912Z,52.20
2022-08-14T12:51:28.111Z,51.88
2022-08-14T12:53:59.661Z,51.71
2022-08-14T12:56:33.628Z,52.25
2022-08-14T12:59:01.892Z,52.12
2022-08-14T13:02:00.362Z,52.52
2022-08-14T13:04:36.525Z,52.49
2022-08-14T13:07:10.844Z,53.26
2022-08-14T13:09:43.396Z,52.66
2022-08-14T13:12:32.122Z,53.01
2022-08-14T13:15:29.087Z,52.49
2022-08-14T13:18:18.261Z,53.12
2022-08-14T13:20:59.664Z,53.32
2022-08-14T13:23:37.433Z,53.04
2022-08-14T13:26:16.430Z,53.09
2022-08-14T13:29:03.845Z,54.19
2022-08-14T13:31:40.389Z,52.67
2022-08-14T13:37:31.014Z,52.24
2022-08-14T13:39:58.904Z,51.82
2022-08-14T13:42:31.607Z,51.47
2022-08-14T13:58:38.098Z,48.53
2022-08-14T14:15:57.724Z,47.17
2022-08-14T14:18:34.845Z,47.29
2022-08-14T14:25:13.097Z,47.16
2022-08-14T14:28:33.425Z,47.12
2022-08-14T14:31:08.803Z,47.30
2022-08-14T14:34:20.161Z,47.21
2022-08-14T14:37:03.115Z,47.32
2022-08-14T14:40:54.560Z,47.21
2022-08-14T14:45:58.899Z,47.05
2022-08-14T14:51:51.556Z,47.26
2022-08-14T14:54:54.234Z,47.18
2022-08-14T14:58:07.268Z,46.85
2022-08-14T15:08:01.111Z,47.34
2022-08-14T15:11:13.417Z,47.14
2022-08-14T15:13:53.301Z,46.99
2022-08-14T15:16:59.223Z,47.05
2022-08-14T15:20:30.145Z,47.46
2022-08-14T15:23:49.375Z,47.99
2022-08-14T15:29:50.061Z,47.56
2022-08-14T15:32:22.416Z,47.79
2022-08-14T15:34:57.383Z,47.69
2022-08-14T15:41:42.802Z,48.09
2022-08-14T15:46:55.459Z,48.16
2022-08-14T15:48:21.967Z,47.85
2022-08-14T15:55:18.462Z,48.22
2022-08-14T16:01:53.535Z,48.55
2022-08-14T16:05:38.661Z,48.16
2022-08-14T16:08:58.857Z,48.16
2022-08-14T16:17:00.403Z,48.36
2022-08-14T16:18:49.705Z,48.56
2022-08-14T16:25:35.390Z,48.74
2022-08-14T16:29:14.232Z,48.97
2022-08-14T16:36:26.545Z,48.79
2022-08-14T16:39:54.710Z,48.94
2022-08-14T16:40:24.514Z,49.02
2022-08-14T16:43:04.747Z,48.74
2022-08-14T16:59:19.613Z,49.31
2022-08-14T17:02:09.160Z,49.13
2022-08-14T17:04:49.241Z,49.24
2022-08-14T17:07:56.471Z,49.10
2022-08-14T17:32:29.739Z,50.01
2022-08-14T17:36:20.940Z,49.93
2022-08-14T17:39:50.378Z,49.78
2022-08-14T17:47:59.906Z,49.97
2022-08-14T17:54:34.702Z,50.05
2022-08-14T17:57:45.873Z,50.50
2022-08-14T18:00:52.601Z,50.68
2022-08-14T18:03:53.178Z,50.50
2022-08-14T18:07:08.801Z,50.72
2022-08-14T18:13:16.855Z,50.43
2022-08-14T18:15:54.554Z,50.48
2022-08-14T18:18:51.488Z,50.96
2022-08-14T18:21:57.485Z,50.69
2022-08-14T18:24:57.552Z,51.39
2022-08-14T18:28:00.290Z,51.77
2022-08-14T18:30:58.897Z,51.51
2022-08-14T18:33:33.191Z,51.21
2022-08-14T18:36:47.186Z,51.44
2022-08-14T18:40:01.142Z,52.16
2022-08-14T18:42:36.169Z,51.73
2022-08-14T18:45:12.940Z,52.05
2022-08-14T18:48:14.094Z,51.65
2022-08-14T18:50:59.063Z,52.25
2022-08-14T18:53:34.288Z,52.54
2022-08-14T18:56:11.408Z,52.55
2022-08-14T18:59:10.411Z,52.06
2022-08-14T19:01:51.746Z,52.75
2022-08-14T19:04:44.085Z,52.42
2022-08-14T19:07:19.365Z,52.36
2022-08-14T19:10:01.960Z,52.52
2022-08-14T19:13:00.509Z,53.21
2022-08-14T19:15:31.602Z,52.52
2022-08-14T19:18:15.112Z,53.04
2022-08-14T19:20:53.350Z,52.96
2022-08-14T19:23:23.303Z,53.05
2022-08-14T19:26:53.909Z,53.08
2022-08-14T19:29:37.814Z,52.85
2022-08-14T19:32:36.682Z,53.32
2022-08-14T19:37:04.588Z,53.38
2022-08-14T19:38:59.318Z,53.13
2022-08-14T19:41:52.058Z,53.68
2022-08-14T19:45:15.927Z,53.14
2022-08-14T19:48:16.112Z,53.12
2022-08-14T19:51:04.180Z,53.43
2022-08-14T19:54:13.752Z,53.68
2022-08-14T20:24:31.197Z,54.37
2022-08-14T20:28:30.060Z,54.23
2022-08-14T20:35:09.408Z,54.49
2022-08-14T20:37:22.650Z,54.29
2022-08-14T20:39:53.568Z,54.27
2022-08-14T20:42:43.520Z,53.90
2022-08-14T20:45:29.009Z,54.33
2022-08-14T20:48:07.137Z,54.37
2022-08-14T20:50:34.608Z,54.49
2022-08-14T20:53:05.996Z,54.74
2022-08-14T20:55:41.689Z,54.72
2022-08-14T20:58:43.299Z,55.26
2022-08-14T21:01:32.492Z,54.82
2022-08-14T21:04:00.996Z,54.80
2022-08-14T21:07:23.921Z,55.09
2022-08-14T21:09:20.104Z,54.82
2022-08-14T21:12:07.421Z,54.84
2022-08-14T21:14:55.186Z,54.87
2022-08-14T21:17:25.663Z,55.32
2022-08-14T21:19:54.016Z,55.03
2022-08-14T21:22:21.351Z,55.51
2022-08-14T21:24:48.577Z,55.31
2022-08-14T21:27:21.930Z,55.53
2022-08-14T21:29:55.185Z,55.78
2022-08-14T21:32:50.327Z,55.37
2022-08-14T21:35:25.348Z,55.48
2022-08-14T21:37:53.974Z,55.62
2022-08-14T21:40:40.981Z,55.39
2022-08-14T21:43:18.157Z,55.71
2022-08-14T21:45:53.497Z,55.63
2022-08-14T21:48:25.346Z,55.67
2022-08-14T21:51:01.453Z,55.49
2022-08-14T21:53:59.422Z,55.81
2022-08-14T21:56:39.080Z,56.32
2022-08-14T21:59:17.657Z,55.87
2022-08-14T22:01:59.378Z,55.73
2022-08-14T22:04:32.598Z,55.78
2022-08-14T22:07:02.062Z,55.73
2022-08-14T22:09:32.483Z,55.88
2022-08-14T22:12:06.960Z,55.55
2022-08-14T22:14:43.710Z,55.90
2022-08-14T22:17:16.354Z,55.91
2022-08-14T22:19:54.166Z,56.58
2022-08-14T22:22:24.198Z,56.17
2022-08-14T22:25:00.356Z,56.24
2022-08-14T22:27:32.557Z,56.27
2022-08-14T22:30:18.707Z,56.33
2022-08-14T22:32:57.951Z,56.49
2022-08-14T22:35:26.329Z,56.12
2022-08-14T22:38:36.341Z,56.62
2022-08-14T22:41:02.551Z,56.54
2022-08-14T22:43:31.459Z,56.70
2022-08-14T22:46:02.494Z,56.26
2022-08-14T22:48:29.868Z,56.78
2022-08-14T22:50:57.142Z,56.58
2022-08-14T22:53:29.284Z,56.77
2022-08-14T22:55:57.165Z,56.81
2022-08-14T22:58:30.710Z,56.69
2022-08-14T23:01:03.927Z,56.98
2022-08-14T23:03:34.788Z,57.11
2022-08-14T23:07:03.378Z,57.21
2022-08-14T23:08:59.254Z,56.93
2022-08-14T23:11:28.764Z,57.17
2022-08-14T23:13:56.175Z,57.11
2022-08-14T23:16:28.067Z,57.14
2022-08-14T23:18:55.483Z,57.22
2022-08-14T23:21:24.453Z,57.42
2022-08-14T23:23:54.865Z,57.18
2022-08-14T23:26:47.041Z,57.18
2022-08-14T23:29:11.670Z,57.30
2022-08-14T23:31:39.563Z,57.31
2022-08-14T23:34:08.304Z,57.13
2022-08-14T23:36:53.114Z,57.37
2022-08-14T23:39:29.640Z,57.39
2022-08-14T23:41:57.201Z,57.23
2022-08-14T23:44:35.297Z,57.36
2022-08-14T23:47:11.610Z,57.42
2022-08-14T23:49:59.753Z,57.50
2022-08-14T23:52:50.648Z,57.46
2022-08-14T23:55:20.651Z,57.67
2022-08-14T23:57:57.837Z,57.56
